Time;durP1;ratioP1;P1;durP2;ratioP2;P2;SDS_P1;SDS_P2;PMS_P1;PMS_P2;Temp;Humidity;BMP_temperature;BMP_pressure;BME280_temperature;BME280_humidity;BME280_pressure;Samples;Min_cycle;Max_cycle;Signal;HPM_P1;HPM_P2
2021/10/04 00:27:20;;;;;;;24.55;13.55;;;;;;;13.35;78.60;100257.80;21198144;82;100915;-87
2021/10/04 00:57:21;;;;;;;22.90;15.14;;;;;;;13.28;79.78;100282.68;20917670;81;100842;-88
2021/10/04 01:27:23;;;;;;;25.05;15.45;;;;;;;13.23;79.94;100297.70;20726638;82;100785;-88
2021/10/04 01:57:23;;;;;;;25.62;15.58;;;;;;;13.06;80.34;100294.95;21073329;81;100801;-88
2021/10/04 02:27:24;;;;;;;;;;;;;;;12.88;80.99;100321.78;21308879;80;100847;-88
2021/10/04 02:57:25;;;;;;;26.25;16.75;;;;;;;12.89;82.12;100339.34;21308208;80;85710;-88
2021/10/04 03:27:26;;;;;;;;;;;;;;;12.87;81.35;100329.88;21350753;79;100761;-88
2021/10/04 03:57:27;;;;;;;27.13;17.15;;;;;;;12.87;82.25;100349.98;21237394;81;126837;-88
2021/10/04 04:27:28;;;;;;;;;;;;;;;12.82;81.96;100384.89;21192535;81;100722;-87
2021/10/04 04:57:29;;;;;;;32.58;17.75;;;;;;;12.72;83.12;100399.50;21255884;80;86620;-83
2021/10/04 05:27:30;;;;;;;32.23;18.02;;;;;;;12.46;82.62;100407.30;21295123;80;100691;-83
2021/10/04 05:57:31;;;;;;;35.50;19.53;;;;;;;12.05;83.63;100430.19;21282437;80;100789;-83
2021/10/04 06:27:32;;;;;;;32.05;19.02;;;;;;;12.26;84.29;100436.42;21213366;81;100778;-83
2021/10/04 06:57:36;;;;;;;32.28;21.80;;;;;;;12.91;85.70;100468.17;21160415;80;100753;-85
2021/10/04 07:27:37;;;;;;;31.50;18.57;;;;;;;14.06;85.20;100503.98;21283379;79;100808;-86
2021/10/04 07:57:38;;;;;;;32.43;20.63;;;;;;;15.34;83.46;100538.52;21250409;80;133313;-85
2021/10/04 08:27:40;;;;;;;26.23;18.53;;;;;;;16.08;81.83;100545.05;21298146;80;110848;-87
2021/10/04 08:57:41;;;;;;;23.30;16.35;;;;;;;17.11;80.19;100531.59;21313593;81;101015;-86
2021/10/04 09:27:47;;;;;;;19.73;14.35;;;;;;;20.25;76.89;100538.45;21258287;80;106973;-88
2021/10/04 09:58:00;;;;;;;18.98;14.03;;;;;;;24.33;67.58;100555.48;21099275;81;2076109;-87
2021/10/04 10:28:04;;;;;;;18.35;13.35;;;;;;;26.88;60.20;100557.00;20978217;82;100003;-87
2021/10/04 10:58:13;;;;;;;20.05;13.53;;;;;;;28.14;55.05;100564.80;21102354;81;2028510;-88
2021/10/04 11:28:18;;;;;;;16.87;12.35;;;;;;;27.67;52.58;100609.58;21287535;81;100860;-87
2021/10/04 11:58:19;;;;;;;19.23;13.70;;;;;;;27.20;51.46;100603.47;21397948;80;136728;-85
2021/10/04 12:28:22;;;;;;;19.20;14.58;;;;;;;26.11;52.37;100598.48;21532026;81;100762;-85
2021/10/04 12:58:25;;;;;;;17.92;11.57;;;;;;;25.55;53.94;100607.50;21346565;80;100127;-83
2021/10/04 13:28:29;;;;;;;17.40;13.32;;;;;;;24.80;55.28;100593.05;21175426;81;99859;-85
2021/10/04 13:58:34;;;;;;;19.50;14.57;;;;;;;24.31;56.52;100616.27;21225702;80;142867;-86
2021/10/04 14:28:39;;;;;;;22.53;14.40;;;;;;;23.80;58.75;100650.26;21209532;81;100759;-84
2021/10/04 14:58:43;;;;;;;19.23;13.25;;;;;;;22.90;60.53;100665.89;21190684;81;99761;-84
2021/10/04 15:28:46;;;;;;;19.65;12.98;;;;;;;22.14;62.45;100679.08;21271586;81;99621;-84
2021/10/04 15:58:48;;;;;;;16.75;10.68;;;;;;;21.46;63.65;100703.95;21425429;80;99866;-83
2021/10/04 16:28:50;;;;;;;18.57;10.57;;;;;;;20.78;66.36;100721.61;21464448;80;99760;-83
2021/10/04 16:58:51;;;;;;;14.20;9.50;;;;;;;20.08;68.56;100749.88;21187160;80;99516;-83
2021/10/04 17:28:58;;;;;;;16.30;10.40;;;;;;;18.74;72.03;100787.94;20704931;83;1262673;-84
2021/10/04 17:58:57;;;;;;;15.10;8.80;;;;;;;17.87;74.48;100820.62;20902975;81;100310;-84
2021/10/04 18:28:58;;;;;;;15.38;8.00;;;;;;;17.33;75.96;100830.56;21254238;81;100087;-82
2021/10/04 18:58:59;;;;;;;13.17;7.03;;;;;;;16.83;77.47;100820.47;21185246;81;104822;-83
2021/10/04 19:29:00;;;;;;;12.63;6.75;;;;;;;16.28;79.09;100800.19;21164888;80;1489437;-86
2021/10/04 19:59:01;;;;;;;;;;;;;;;15.92;80.59;100807.73;21183223;81;100120;-86
2021/10/04 20:29:02;;;;;;;13.97;8.07;;;;;;;15.73;83.22;100798.48;21267574;82;85783;-86
2021/10/04 20:59:03;;;;;;;14.75;9.23;;;;;;;15.68;82.57;100811.38;21272669;81;99641;-87
2021/10/04 21:29:04;;;;;;;12.50;6.93;;;;;;;15.69;83.73;100779.70;21191299;81;99444;-85
2021/10/04 21:59:15;;;;;;;14.97;8.87;;;;;;;15.38;85.84;100744.53;21072447;81;99623;-86
2021/10/04 22:29:08;;;;;;;14.28;7.12;;;;;;;14.90;88.78;100724.02;21103905;81;99681;-86
2021/10/04 22:59:09;;;;;;;15.60;8.08;;;;;;;14.78;88.94;100732.14;21133367;80;99752;-85
2021/10/04 23:29:10;;;;;;;12.13;7.43;;;;;;;14.82;87.15;100696.91;21116565;80;99555;-85
2021/10/04 23:59:11;;;;;;;12.50;7.92;;;;;;;14.61;87.55;100731.56;21142147;81;99482;-85
